Time;durP1;ratioP1;P1;durP2;ratioP2;P2;SDS_P1;SDS_P2;PMS_P1;PMS_P2;Temp;Humidity;BMP_temperature;BMP_pressure;BME280_temperature;BME280_humidity;BME280_pressure;Samples;Min_cycle;Max_cycle;Signal;HPM_P1;HPM_P2
2023/06/18 00:00:25;;;;;;;8.65;6.88;;;20.40;76.40;;;;;;4997382;28;20045;-85
2023/06/18 00:02:50;;;;;;;9.15;6.97;;;20.40;76.40;;;;;;4979034;28;20383;-85
2023/06/18 00:05:16;;;;;;;9.98;6.82;;;20.40;76.50;;;;;;5004297;28;20091;-85
2023/06/18 00:07:41;;;;;;;9.50;6.82;;;20.40;76.60;;;;;;4995001;28;20037;-85
2023/06/18 00:10:07;;;;;;;9.70;6.68;;;20.40;76.60;;;;;;4996852;28;20101;-85
2023/06/18 00:12:33;;;;;;;10.25;7.20;;;20.40;76.60;;;;;;4995889;28;20029;-85
2023/06/18 00:14:58;;;;;;;10.82;7.43;;;20.30;76.60;;;;;;4997345;28;20034;-85
2023/06/18 00:17:25;;;;;;;9.57;6.85;;;20.40;76.70;;;;;;4994536;28;20026;-84
2023/06/18 00:19:51;;;;;;;9.40;7.43;;;20.30;76.70;;;;;;4995853;28;20493;-84
2023/06/18 00:22:17;;;;;;;9.02;6.53;;;20.30;76.70;;;;;;4977533;28;20022;-84
2023/06/18 00:24:42;;;;;;;9.05;6.80;;;20.30;76.60;;;;;;4991252;28;20121;-84
2023/06/18 00:27:09;;;;;;;9.50;6.57;;;20.30;76.50;;;;;;4996681;28;20049;-84
2023/06/18 00:29:35;;;;;;;9.90;6.55;;;20.30;76.50;;;;;;5015241;28;20113;-84
2023/06/18 00:32:01;;;;;;;9.32;6.55;;;20.30;76.60;;;;;;5015072;28;20017;-84
2023/06/18 00:34:32;;;;;;;9.75;6.75;;;20.30;76.60;;;;;;5012750;28;20044;-85
2023/06/18 00:37:00;;;;;;;10.13;7.00;;;20.30;76.60;;;;;;4996977;28;20022;-85
2023/06/18 00:39:26;;;;;;;9.13;6.85;;;20.30;76.60;;;;;;4996707;28;20032;-84
2023/06/18 00:41:52;;;;;;;8.90;6.93;;;20.30;76.60;;;;;;5014205;28;20398;-85
2023/06/18 00:44:21;;;;;;;9.02;6.70;;;20.30;76.70;;;;;;5007617;28;20495;-84
2023/06/18 00:46:48;;;;;;;9.73;7.50;;;20.30;76.70;;;;;;4996231;28;20406;-85
2023/06/18 00:49:15;;;;;;;9.52;6.65;;;20.40;76.70;;;;;;4996111;28;20578;-84
2023/06/18 00:51:44;;;;;;;9.43;6.75;;;20.40;76.70;;;;;;4996516;28;20045;-84
2023/06/18 00:54:13;;;;;;;8.77;6.50;;;20.40;76.50;;;;;;5009229;28;20105;-84
2023/06/18 00:56:50;;;;;;;8.50;6.45;;;20.40;76.50;;;;;;4976206;28;20101;-84
2023/06/18 00:59:22;;;;;;;8.85;6.50;;;20.50;76.50;;;;;;4976925;28;20370;-84
2023/06/18 01:01:58;;;;;;;9.52;6.75;;;20.50;76.40;;;;;;4983547;28;20037;-85
2023/06/18 01:04:27;;;;;;;9.40;6.90;;;20.50;76.30;;;;;;4990712;28;20065;-85
2023/06/18 01:06:55;;;;;;;8.65;6.35;;;20.50;76.30;;;;;;4986376;28;20452;-85
2023/06/18 01:09:22;;;;;;;8.95;7.38;;;20.50;76.30;;;;;;5015312;28;20064;-85
2023/06/18 01:11:51;;;;;;;8.30;6.30;;;20.50;76.20;;;;;;5005958;28;20406;-86
2023/06/18 01:14:21;;;;;;;8.35;6.50;;;20.50;76.30;;;;;;5002817;28;20371;-85
2023/06/18 01:16:49;;;;;;;9.27;7.28;;;20.40;76.20;;;;;;5003693;28;20045;-85
2023/06/18 01:19:35;;;;;;;9.15;6.90;;;20.40;76.30;;;;;;5023226;28;20556;-85
2023/06/18 01:22:11;;;;;;;9.25;7.30;;;20.40;76.50;;;;;;5004877;28;20561;-84
2023/06/18 01:24:42;;;;;;;10.80;7.80;;;20.40;76.60;;;;;;5011862;28;20034;-85
2023/06/18 01:27:08;;;;;;;8.20;6.28;;;20.40;76.70;;;;;;5000327;28;20025;-85
2023/06/18 01:29:38;;;;;;;9.55;6.90;;;20.40;76.70;;;;;;5000432;28;20449;-85
2023/06/18 01:32:04;;;;;;;10.35;7.10;;;20.30;76.60;;;;;;5000315;28;20038;-85
2023/06/18 01:34:29;;;;;;;8.80;7.22;;;20.30;76.60;;;;;;5008012;28;20022;-85
2023/06/18 01:37:06;;;;;;;8.95;7.00;;;20.30;76.60;;;;;;4997996;28;20502;-85
2023/06/18 01:39:44;;;;;;;9.45;7.25;;;20.30;76.60;;;;;;4980747;28;20112;-85
2023/06/18 01:42:19;;;;;;;9.55;7.18;;;20.30;76.70;;;;;;4996291;28;20030;-85
2023/06/18 01:44:50;;;;;;;9.48;6.90;;;20.30;76.70;;;;;;5002796;28;20050;-85
2023/06/18 01:47:18;;;;;;;9.05;7.25;;;20.30;76.80;;;;;;5014528;28;20026;-85
2023/06/18 01:49:45;;;;;;;9.43;7.85;;;20.30;76.70;;;;;;5003125;28;20437;-85
2023/06/18 01:52:15;;;;;;;8.85;7.00;;;20.30;76.70;;;;;;5020519;28;20030;-85
2023/06/18 01:54:46;;;;;;;9.20;6.50;;;20.30;76.70;;;;;;5015580;28;20089;-85
2023/06/18 01:57:16;;;;;;;9.77;7.10;;;20.30;76.70;;;;;;5019127;28;20083;-85
2023/06/18 01:59:44;;;;;;;10.43;7.50;;;20.30;76.70;;;;;;5001306;28;20057;-85
2023/06/18 02:02:12;;;;;;;9.00;7.22;;;20.30;76.70;;;;;;5002267;28;20117;-86
2023/06/18 02:04:37;;;;;;;9.73;7.15;;;20.30;76.70;;;;;;5014469;28;20029;-86
2023/06/18 02:07:03;;;;;;;9.48;7.10;;;20.30;76.70;;;;;;5001368;28;20033;-85
2023/06/18 02:09:30;;;;;;;8.93;7.00;;;20.30;76.80;;;;;;5017905;28;20093;-85
2023/06/18 02:11:55;;;;;;;8.23;6.93;;;20.30;76.80;;;;;;5018616;28;20022;-85
2023/06/18 02:14:21;;;;;;;8.63;7.00;;;20.30;76.80;;;;;;5001797;28;20068;-86
2023/06/18 02:16:48;;;;;;;9.27;7.57;;;20.30;76.90;;;;;;5021713;28;20108;-86
2023/06/18 02:19:14;;;;;;;9.07;7.18;;;20.30;76.80;;;;;;5021412;28;20433;-85
2023/06/18 02:21:40;;;;;;;9.43;7.15;;;20.40;76.80;;;;;;5003494;28;20112;-86
2023/06/18 02:24:05;;;;;;;8.55;6.68;;;20.40;77.20;;;;;;5017111;28;20037;-86
2023/06/18 02:26:31;;;;;;;8.73;7.10;;;20.40;76.60;;;;;;5020842;28;20033;-86
2023/06/18 02:28:56;;;;;;;8.85;7.20;;;20.40;76.50;;;;;;5020676;28;20053;-85
2023/06/18 02:31:22;;;;;;;9.15;6.82;;;20.40;76.50;;;;;;4999773;28;20031;-85
2023/06/18 02:33:47;;;;;;;9.23;7.50;;;20.40;76.50;;;;;;4987129;28;20037;-86
2023/06/18 02:36:13;;;;;;;9.10;7.70;;;20.40;77.00;;;;;;5018588;28;20097;-83
2023/06/18 02:38:39;;;;;;;8.65;6.63;;;20.40;76.40;;;;;;5001686;28;20022;-85
2023/06/18 02:41:05;;;;;;;9.05;6.80;;;20.50;76.50;;;;;;5001980;28;20033;-85
2023/06/18 02:43:30;;;;;;;8.77;7.13;;;20.40;76.40;;;;;;4998986;28;20045;-85
2023/06/18 02:45:56;;;;;;;9.18;7.47;;;20.40;77.00;;;;;;4987814;28;20038;-85
2023/06/18 02:48:22;;;;;;;10.35;7.40;;;20.40;76.60;;;;;;5000259;28;20030;-85
2023/06/18 02:50:47;;;;;;;9.43;7.57;;;20.40;76.80;;;;;;5018458;28;20029;-85
2023/06/18 02:53:13;;;;;;;9.48;7.32;;;20.30;76.80;;;;;;5017430;28;20030;-85
2023/06/18 02:55:41;;;;;;;9.93;6.90;;;20.30;76.70;;;;;;4997587;28;20056;-85
2023/06/18 02:58:16;;;;;;;8.50;6.88;;;20.30;76.80;;;;;;5018016;28;20517;-85
2023/06/18 03:00:42;;;;;;;9.40;7.45;;;20.30;76.80;;;;;;4999807;28;20486;-85
2023/06/18 03:03:07;;;;;;;10.07;7.80;;;20.30;76.80;;;;;;4999122;28;20022;-85
2023/06/18 03:05:32;;;;;;;10.48;8.13;;;20.30;76.80;;;;;;4988888;28;20444;-86
2023/06/18 03:07:58;;;;;;;9.70;7.38;;;20.30;76.90;;;;;;4999648;28;20034;-85
2023/06/18 03:10:23;;;;;;;8.88;7.18;;;20.30;76.90;;;;;;4999014;28;20109;-85
2023/06/18 03:12:49;;;;;;;10.13;7.88;;;20.30;76.90;;;;;;4999060;28;20022;-85
2023/06/18 03:15:15;;;;;;;8.55;7.35;;;20.30;76.90;;;;;;5004711;28;20113;-85
2023/06/18 03:17:40;;;;;;;9.77;8.15;;;20.30;76.90;;;;;;4998660;28;20026;-84
2023/06/18 03:20:07;;;;;;;10.48;7.90;;;20.20;76.90;;;;;;4998761;28;20052;-84
2023/06/18 03:22:32;;;;;;;9.82;7.90;;;20.20;76.80;;;;;;4998308;28;20034;-84
2023/06/18 03:25:00;;;;;;;10.50;8.20;;;20.20;76.80;;;;;;4991846;28;20097;-84
2023/06/18 03:27:25;;;;;;;11.32;7.75;;;20.30;76.90;;;;;;4979159;28;20030;-85
2023/06/18 03:29:51;;;;;;;9.73;7.90;;;20.30;76.90;;;;;;4994853;28;20113;-84
2023/06/18 03:32:18;;;;;;;9.70;7.88;;;20.20;76.80;;;;;;4994587;28;20479;-85
2023/06/18 03:34:48;;;;;;;10.73;7.97;;;20.30;76.80;;;;;;5005959;28;20025;-84
2023/06/18 03:37:16;;;;;;;9.63;7.95;;;20.20;76.80;;;;;;4980809;28;20483;-85
2023/06/18 03:39:42;;;;;;;9.70;8.07;;;20.30;76.90;;;;;;4977971;28;20036;-84
2023/06/18 03:42:07;;;;;;;9.80;8.20;;;20.30;76.90;;;;;;4994378;28;20027;-85
2023/06/18 03:44:33;;;;;;;9.77;7.75;;;20.40;77.00;;;;;;4983483;28;20078;-84
2023/06/18 03:46:58;;;;;;;9.93;8.10;;;20.30;76.90;;;;;;5009987;28;20033;-85
2023/06/18 03:49:24;;;;;;;9.68;8.07;;;20.30;76.80;;;;;;4997019;28;20116;-85
2023/06/18 03:51:49;;;;;;;9.70;7.97;;;20.30;76.70;;;;;;4996817;28;20026;-85
2023/06/18 03:54:15;;;;;;;9.73;7.93;;;20.30;76.60;;;;;;4993086;28;20062;-84
2023/06/18 03:56:41;;;;;;;9.13;7.47;;;20.40;76.60;;;;;;4993334;28;20126;-84
2023/06/18 03:59:06;;;;;;;9.50;7.60;;;20.40;76.50;;;;;;4977664;28;20037;-84
2023/06/18 04:01:32;;;;;;;9.70;8.02;;;20.40;76.50;;;;;;4994863;28;20026;-85
2023/06/18 04:03:57;;;;;;;9.20;7.63;;;20.40;76.40;;;;;;4997521;28;20030;-84
2023/06/18 04:06:23;;;;;;;10.18;8.23;;;20.40;76.90;;;;;;4987562;28;20112;-85
2023/06/18 04:08:48;;;;;;;9.57;7.80;;;20.40;76.40;;;;;;4996426;28;20021;-84
2023/06/18 04:11:14;;;;;;;10.63;8.02;;;20.40;76.40;;;;;;4996611;28;20025;-84
2023/06/18 04:13:40;;;;;;;10.20;8.35;;;20.40;76.40;;;;;;4992700;28;20483;-84
2023/06/18 04:16:06;;;;;;;11.35;8.90;;;20.40;76.50;;;;;;5016538;28;20022;-86
2023/06/18 04:18:31;;;;;;;11.18;9.23;;;20.40;76.70;;;;;;5020918;28;20028;-85
2023/06/18 04:20:57;;;;;;;10.63;8.93;;;20.30;76.70;;;;;;5003930;28;20057;-85
2023/06/18 04:23:23;;;;;;;11.27;8.93;;;20.40;76.80;;;;;;5000802;28;20511;-86
2023/06/18 04:25:48;;;;;;;9.27;7.97;;;20.30;76.80;;;;;;4999532;28;20030;-85
2023/06/18 04:28:14;;;;;;;10.10;8.13;;;20.30;76.80;;;;;;4999357;28;20049;-85
2023/06/18 04:30:39;;;;;;;11.48;9.15;;;20.30;76.80;;;;;;4982658;28;20387;-85
2023/06/18 04:33:05;;;;;;;10.82;9.20;;;20.30;76.80;;;;;;4985473;28;20028;-86
2023/06/18 04:35:30;;;;;;;10.32;8.85;;;20.30;76.90;;;;;;4996942;28;20037;-84
2023/06/18 04:37:56;;;;;;;11.63;8.38;;;20.30;76.90;;;;;;5000005;28;20025;-84
2023/06/18 04:40:21;;;;;;;10.30;8.85;;;20.30;76.90;;;;;;5019111;28;20053;-85
2023/06/18 04:42:47;;;;;;;9.98;8.73;;;20.30;76.90;;;;;;5000336;28;20525;-85
2023/06/18 04:45:13;;;;;;;10.32;8.88;;;20.30;76.90;;;;;;4998312;28;20030;-85
2023/06/18 04:47:40;;;;;;;11.23;8.85;;;20.30;76.90;;;;;;4999199;28;20161;-84
2023/06/18 04:50:06;;;;;;;10.43;8.43;;;20.30;76.80;;;;;;5017683;28;20026;-84
2023/06/18 04:52:32;;;;;;;10.13;8.52;;;20.30;76.80;;;;;;4999343;28;20108;-84
2023/06/18 04:54:57;;;;;;;10.68;8.93;;;20.30;76.70;;;;;;5013928;28;20091;-85
2023/06/18 04:57:23;;;;;;;9.93;8.32;;;20.20;76.70;;;;;;4999153;28;20127;-84
2023/06/18 04:59:48;;;;;;;10.55;8.20;;;20.30;76.70;;;;;;4998570;28;20025;-85
2023/06/18 05:02:14;;;;;;;10.63;8.82;;;20.30;76.80;;;;;;4999308;28;20128;-85
2023/06/18 05:04:40;;;;;;;9.85;8.43;;;20.30;76.70;;;;;;5002198;28;20565;-86
2023/06/18 05:07:05;;;;;;;10.10;8.73;;;20.30;76.80;;;;;;5002233;28;20032;-86
2023/06/18 05:09:31;;;;;;;9.80;8.23;;;20.30;76.70;;;;;;4999943;28;20036;-85
2023/06/18 05:11:57;;;;;;;10.93;9.00;;;20.30;76.80;;;;;;4997178;28;20497;-84
2023/06/18 05:14:22;;;;;;;10.55;8.60;;;20.30;76.70;;;;;;4993897;28;20030;-83
2023/06/18 05:16:48;;;;;;;10.23;9.10;;;20.40;76.70;;;;;;4995093;28;20033;-83
2023/06/18 05:19:13;;;;;;;10.45;9.05;;;20.40;76.60;;;;;;5013232;28;20464;-83
2023/06/18 05:21:39;;;;;;;11.05;9.38;;;20.40;76.60;;;;;;4995869;28;20026;-84
2023/06/18 05:24:07;;;;;;;11.05;9.15;;;20.40;76.50;;;;;;4995867;28;20033;-85
2023/06/18 05:26:33;;;;;;;10.10;8.63;;;20.40;76.40;;;;;;4981931;28;20521;-84
2023/06/18 05:28:58;;;;;;;9.88;8.55;;;20.90;76.60;;;;;;4999495;28;20033;-84
2023/06/18 05:31:24;;;;;;;10.52;9.30;;;21.10;76.70;;;;;;4998965;28;20086;-84
2023/06/18 05:33:50;;;;;;;10.85;8.88;;;20.50;76.30;;;;;;5016486;28;20018;-82
2023/06/18 05:36:15;;;;;;;10.63;8.80;;;20.60;76.30;;;;;;4997954;28;20382;-84
2023/06/18 05:38:41;;;;;;;10.05;8.90;;;20.60;76.30;;;;;;4998249;28;20911;-80
2023/06/18 05:41:06;;;;;;;10.90;9.20;;;20.40;76.10;;;;;;5015114;28;20356;-83
2023/06/18 05:43:32;;;;;;;11.60;9.48;;;20.50;76.20;;;;;;4995896;28;20034;-83
2023/06/18 05:45:57;;;;;;;11.13;9.43;;;21.70;77.00;;;;;;4987885;28;20045;-83
2023/06/18 05:48:24;;;;;;;12.15;9.65;;;20.50;76.40;;;;;;4999079;28;20497;-84
2023/06/18 05:50:49;;;;;;;10.88;9.00;;;20.80;76.60;;;;;;5004441;28;20106;-84
2023/06/18 05:53:15;;;;;;;10.00;8.80;;;20.00;76.20;;;;;;5003047;28;20554;-84
2023/06/18 05:55:40;;;;;;;11.13;9.30;;;20.20;76.40;;;;;;5002007;28;20022;-84
2023/06/18 05:58:06;;;;;;;11.27;9.48;;;20.50;76.60;;;;;;5004031;28;20102;-84
2023/06/18 06:00:32;;;;;;;10.77;9.02;;;20.40;76.50;;;;;;5004173;28;20028;-84
2023/06/18 06:02:58;;;;;;;10.55;9.10;;;20.40;76.50;;;;;;5005235;28;20022;-84
2023/06/18 06:05:23;;;;;;;11.27;8.75;;;20.90;76.90;;;;;;5002847;28;20044;-84
2023/06/18 06:07:49;;;;;;;11.18;9.38;;;21.10;77.00;;;;;;4984721;28;20356;-83
2023/06/18 06:10:17;;;;;;;10.23;9.13;;;20.50;76.60;;;;;;5002606;28;20512;-84
2023/06/18 06:12:43;;;;;;;11.02;9.55;;;21.20;77.00;;;;;;5022109;28;20033;-84
2023/06/18 06:15:09;;;;;;;10.73;9.05;;;21.10;76.90;;;;;;5018770;28;20033;-85
2023/06/18 06:17:35;;;;;;;11.20;9.60;;;20.40;76.60;;;;;;5019584;28;20034;-85
2023/06/18 06:20:01;;;;;;;10.60;9.20;;;20.40;76.60;;;;;;5001690;28;20037;-84
2023/06/18 06:22:26;;;;;;;10.48;9.10;;;20.40;76.50;;;;;;5000224;28;20026;-84
2023/06/18 06:24:52;;;;;;;10.60;9.15;;;20.50;76.60;;;;;;5013856;28;20034;-84
2023/06/18 06:27:18;;;;;;;12.00;9.90;;;21.40;77.10;;;;;;4999932;28;20033;-85
2023/06/18 06:29:43;;;;;;;10.35;9.20;;;20.50;76.50;;;;;;5001710;28;20030;-84
2023/06/18 06:32:09;;;;;;;10.60;9.15;;;21.00;76.90;;;;;;4999549;28;20030;-84
2023/06/18 06:34:34;;;;;;;10.95;9.40;;;20.50;76.50;;;;;;4991532;28;20030;-84
2023/06/18 06:37:00;;;;;;;10.85;9.32;;;20.50;76.50;;;;;;4994164;28;20491;-85
2023/06/18 06:39:26;;;;;;;11.68;9.73;;;20.50;76.50;;;;;;4998862;28;20104;-84
2023/06/18 06:41:51;;;;;;;11.05;9.70;;;20.50;76.40;;;;;;4998457;28;20447;-84
2023/06/18 06:44:17;;;;;;;10.52;9.27;;;20.50;76.50;;;;;;4997610;28;20395;-83
2023/06/18 06:46:43;;;;;;;11.85;10.10;;;20.60;76.40;;;;;;4997576;28;20040;-85
2023/06/18 06:49:09;;;;;;;11.43;9.40;;;20.60;76.20;;;;;;4997959;28;20030;-85
2023/06/18 06:51:35;;;;;;;11.32;9.77;;;20.60;76.10;;;;;;4998605;28;20025;-84
2023/06/18 06:54:01;;;;;;;10.45;9.25;;;20.60;76.00;;;;;;4998163;28;20050;-83
2023/06/18 06:56:27;;;;;;;10.98;9.18;;;20.70;75.90;;;;;;5010796;28;20514;-84
2023/06/18 06:58:52;;;;;;;11.07;9.48;;;20.70;75.90;;;;;;4996757;28;20014;-80
2023/06/18 07:01:20;;;;;;;11.00;9.50;;;20.70;75.80;;;;;;4989333;28;20041;-84
2023/06/18 07:03:46;;;;;;;11.77;9.18;;;20.70;75.80;;;;;;5007742;28;20030;-84
2023/06/18 07:06:12;;;;;;;10.55;8.88;;;20.80;75.80;;;;;;4994848;28;20423;-85
2023/06/18 07:08:38;;;;;;;11.45;10.02;;;20.70;75.70;;;;;;4997755;28;20561;-84
2023/06/18 07:11:03;;;;;;;14.15;9.48;;;20.70;75.70;;;;;;4979412;28;20049;-84
2023/06/18 07:13:29;;;;;;;11.45;9.73;;;20.70;75.70;;;;;;4980343;28;20432;-85
2023/06/18 07:15:55;;;;;;;11.38;9.60;;;20.70;75.80;;;;;;4997603;28;20045;-82
2023/06/18 07:18:20;;;;;;;11.25;9.40;;;20.70;75.80;;;;;;4998567;28;20022;-84
2023/06/18 07:20:46;;;;;;;11.10;9.73;;;20.70;75.90;;;;;;4998208;28;20026;-82
2023/06/18 07:23:12;;;;;;;11.60;9.98;;;20.70;76.00;;;;;;4995761;28;20025;-86
2023/06/18 07:25:37;;;;;;;11.40;9.68;;;20.80;76.00;;;;;;5008177;28;20030;-81
2023/06/18 07:28:03;;;;;;;11.25;9.40;;;20.70;76.00;;;;;;5017250;28;20196;-86
2023/06/18 07:30:28;;;;;;;12.02;9.82;;;20.70;76.00;;;;;;4998494;28;20574;-82
2023/06/18 07:32:54;;;;;;;11.23;9.85;;;20.70;76.00;;;;;;5014269;28;20030;-84
2023/06/18 07:35:19;;;;;;;12.77;9.95;;;21.50;76.40;;;;;;5011366;28;20378;-82
2023/06/18 07:37:45;;;;;;;11.52;9.65;;;21.10;76.20;;;;;;5002217;28;20049;-83
2023/06/18 07:40:11;;;;;;;11.45;9.68;;;20.70;75.90;;;;;;4996847;28;20026;-81
2023/06/18 07:42:37;;;;;;;12.82;10.13;;;20.80;75.90;;;;;;5014642;28;20026;-83
2023/06/18 07:45:03;;;;;;;12.48;9.85;;;21.70;76.40;;;;;;4996813;28;20062;-83
2023/06/18 07:47:28;;;;;;;10.80;9.65;;;20.80;75.80;;;;;;5014521;28;20072;-84
2023/06/18 07:49:53;;;;;;;11.77;10.07;;;20.80;75.80;;;;;;4996776;28;20081;-82
2023/06/18 07:52:19;;;;;;;11.65;10.32;;;20.80;75.80;;;;;;5015412;28;20470;-83
2023/06/18 07:54:45;;;;;;;11.35;10.00;;;20.80;75.70;;;;;;4999373;28;20113;-84
2023/06/18 07:57:10;;;;;;;10.93;9.73;;;20.90;75.80;;;;;;4998749;28;20394;-82
2023/06/18 07:59:36;;;;;;;10.93;9.77;;;20.90;75.70;;;;;;4999509;28;20056;-82
2023/06/18 08:02:01;;;;;;;10.75;9.40;;;20.90;75.70;;;;;;5016253;28;20037;-84
2023/06/18 08:04:27;;;;;;;11.68;9.82;;;20.90;75.70;;;;;;5010463;28;20915;-83
2023/06/18 08:06:53;;;;;;;10.75;9.38;;;20.90;75.60;;;;;;4993205;28;20026;-85
2023/06/18 08:09:18;;;;;;;11.50;9.85;;;20.90;75.60;;;;;;5000580;28;20030;-84
2023/06/18 08:11:44;;;;;;;11.13;8.93;;;21.00;75.60;;;;;;5014645;28;20026;-84
2023/06/18 08:14:10;;;;;;;12.05;9.70;;;20.90;75.40;;;;;;5019298;28;20061;-84
2023/06/18 08:16:37;;;;;;;11.30;9.73;;;21.00;75.40;;;;;;5021492;28;20026;-83
2023/06/18 08:19:03;;;;;;;10.48;9.38;;;21.00;75.30;;;;;;5002205;28;20030;-83
2023/06/18 08:21:28;;;;;;;11.77;9.70;;;21.00;75.20;;;;;;5004677;28;20022;-85
2023/06/18 08:23:54;;;;;;;10.75;9.60;;;21.10;75.60;;;;;;4999345;28;20483;-85
2023/06/18 08:26:22;;;;;;;11.43;9.65;;;21.10;75.00;;;;;;4993031;28;20368;-85
2023/06/18 08:28:47;;;;;;;10.07;8.85;;;21.10;74.90;;;;;;4997494;28;20018;-85
2023/06/18 08:31:13;;;;;;;11.25;9.75;;;21.10;74.90;;;;;;4999472;28;20429;-84
2023/06/18 08:33:38;;;;;;;11.82;9.75;;;21.20;74.90;;;;;;4995496;28;20033;-86
2023/06/18 08:36:04;;;;;;;11.98;10.35;;;21.20;74.80;;;;;;5000521;28;20390;-86
2023/06/18 08:38:30;;;;;;;11.55;9.80;;;21.20;74.80;;;;;;4999165;28;20086;-86
2023/06/18 08:41:00;;;;;;;11.10;8.95;;;21.20;74.80;;;;;;5016348;28;20029;-85
2023/06/18 08:43:26;;;;;;;11.35;9.70;;;21.20;74.90;;;;;;4997903;28;20034;-86
2023/06/18 08:45:53;;;;;;;10.80;9.15;;;21.20;75.00;;;;;;5017312;28;20076;-85
2023/06/18 08:48:27;;;;;;;12.15;9.65;;;21.20;75.10;;;;;;5000717;28;20441;-85
2023/06/18 08:50:59;;;;;;;11.88;9.93;;;21.20;75.10;;;;;;4997536;28;20033;-84
2023/06/18 08:53:38;;;;;;;10.45;9.23;;;21.20;75.10;;;;;;4996768;28;20030;-83
2023/06/18 08:56:06;;;;;;;11.38;9.57;;;21.20;75.20;;;;;;5016094;28;20037;-83
2023/06/18 08:58:36;;;;;;;12.88;9.73;;;21.20;75.20;;;;;;5014690;28;20025;-82
2023/06/18 09:01:02;;;;;;;11.57;9.93;;;21.20;75.20;;;;;;4997469;28;20410;-85
2023/06/18 09:03:28;;;;;;;11.10;9.63;;;21.20;75.30;;;;;;4996938;28;20030;-82
2023/06/18 09:05:54;;;;;;;10.98;9.77;;;21.20;75.30;;;;;;5003410;28;20030;-85
2023/06/18 09:08:21;;;;;;;10.77;9.55;;;21.30;75.20;;;;;;4994238;28;20108;-84
2023/06/18 09:10:47;;;;;;;11.77;10.15;;;21.20;75.20;;;;;;4995198;28;20029;-84
2023/06/18 09:13:13;;;;;;;11.65;9.88;;;21.30;75.20;;;;;;4995233;28;20029;-83
2023/06/18 09:15:38;;;;;;;10.95;8.98;;;21.20;75.10;;;;;;4988160;28;20026;-84
2023/06/18 09:18:05;;;;;;;10.55;8.98;;;21.30;75.20;;;;;;4995128;28;20060;-83
2023/06/18 09:20:34;;;;;;;11.05;9.50;;;21.30;75.10;;;;;;5012251;28;20033;-84
2023/06/18 09:23:08;;;;;;;11.50;10.18;;;21.40;75.10;;;;;;4994312;28;20054;-84
2023/06/18 09:25:33;;;;;;;10.90;9.15;;;21.30;75.10;;;;;;4993171;28;20035;-83
2023/06/18 09:28:00;;;;;;;10.75;9.02;;;21.40;75.10;;;;;;4991834;28;20045;-84
2023/06/18 09:30:26;;;;;;;11.55;9.50;;;21.40;75.10;;;;;;5011765;28;20788;-84
2023/06/18 09:32:53;;;;;;;11.18;9.70;;;21.40;75.10;;;;;;4994301;28;20032;-84
2023/06/18 09:35:19;;;;;;;11.45;9.32;;;21.40;75.10;;;;;;5005854;28;20022;-84
2023/06/18 09:37:45;;;;;;;10.68;9.30;;;21.40;75.10;;;;;;4974395;28;20286;-84
2023/06/18 09:40:19;;;;;;;10.32;8.85;;;21.40;75.10;;;;;;4974000;28;20497;-84
2023/06/18 09:42:45;;;;;;;11.02;8.90;;;21.40;75.00;;;;;;4992202;28;20618;-84
2023/06/18 09:45:13;;;;;;;12.30;9.43;;;21.40;74.90;;;;;;4989557;28;20092;-85
2023/06/18 09:47:41;;;;;;;10.57;9.10;;;21.50;74.90;;;;;;4987676;28;20029;-82
2023/06/18 09:50:09;;;;;;;11.38;9.70;;;21.50;74.80;;;;;;4992789;28;20022;-86
2023/06/18 09:52:44;;;;;;;12.60;9.90;;;21.50;74.80;;;;;;4992667;28;20029;-85
2023/06/18 09:55:32;;;;;;;10.82;8.95;;;21.50;74.80;;;;;;5002980;28;20186;-85
2023/06/18 09:58:00;;;;;;;11.02;9.10;;;21.50;74.70;;;;;;4991703;28;20045;-84
2023/06/18 10:00:26;;;;;;;10.77;9.45;;;21.50;74.70;;;;;;4992154;28;20030;-85
2023/06/18 10:02:52;;;;;;;11.55;9.02;;;21.50;74.60;;;;;;4992622;28;20037;-84
2023/06/18 10:05:18;;;;;;;11.90;9.57;;;21.60;74.70;;;;;;4990821;28;20112;-86
2023/06/18 10:07:46;;;;;;;11.40;9.20;;;21.60;74.70;;;;;;4979608;28;20172;-85
2023/06/18 10:10:13;;;;;;;10.93;8.75;;;21.60;74.60;;;;;;5009897;28;20057;-84
2023/06/18 10:12:44;;;;;;;12.15;9.30;;;21.50;74.60;;;;;;5010143;28;20033;-84
2023/06/18 10:15:11;;;;;;;10.88;8.88;;;21.50;74.60;;;;;;5002148;28;20431;-84
2023/06/18 10:17:43;;;;;;;10.60;8.93;;;21.50;74.70;;;;;;4991786;28;20117;-84
2023/06/18 10:20:12;;;;;;;9.88;8.82;;;21.50;74.80;;;;;;5009094;28;20101;-84
2023/06/18 10:22:42;;;;;;;10.98;8.70;;;21.50;74.90;;;;;;5009238;28;20426;-84
2023/06/18 10:25:07;;;;;;;10.75;8.73;;;21.50;75.00;;;;;;4990923;28;20026;-84
2023/06/18 10:27:34;;;;;;;12.52;8.75;;;21.40;75.10;;;;;;5009318;28;20122;-85
2023/06/18 10:30:00;;;;;;;10.32;8.40;;;21.40;75.10;;;;;;4991788;28;20030;-84
2023/06/18 10:32:28;;;;;;;10.25;8.82;;;21.40;75.30;;;;;;5009136;28;20479;-83
2023/06/18 10:34:57;;;;;;;11.52;9.68;;;21.40;75.30;;;;;;4999568;28;20035;-84
2023/06/18 10:37:25;;;;;;;10.45;8.95;;;21.40;75.40;;;;;;5004897;28;20041;-86
2023/06/18 10:39:51;;;;;;;11.63;9.38;;;21.40;75.40;;;;;;5007296;28;20030;-85
2023/06/18 10:42:19;;;;;;;11.10;9.07;;;21.30;75.40;;;;;;5006438;28;20045;-84
2023/06/18 10:44:47;;;;;;;11.25;8.77;;;21.40;75.40;;;;;;5020311;28;20033;-85
2023/06/18 10:47:22;;;;;;;10.73;9.10;;;21.40;75.40;;;;;;5022046;28;20029;-85
2023/06/18 10:50:03;;;;;;;10.77;9.38;;;21.40;75.40;;;;;;5003498;28;20054;-84
2023/06/18 10:52:31;;;;;;;;;;;21.40;75.50;;;;;;5003370;28;20549;-83
2023/06/18 10:55:18;;;;;;;10.63;8.98;;;21.30;75.40;;;;;;5002362;28;19910;-85
2023/06/18 10:57:55;;;;;;;11.05;9.38;;;21.40;75.50;;;;;;4997761;28;20419;-85
2023/06/18 11:00:29;;;;;;;10.23;8.88;;;21.40;75.50;;;;;;5002041;28;20030;-85
2023/06/18 11:02:59;;;;;;;10.20;8.75;;;21.40;75.50;;;;;;5001585;28;20516;-84
2023/06/18 11:05:34;;;;;;;10.95;9.15;;;21.30;75.50;;;;;;5007228;28;20057;-85
2023/06/18 11:08:01;;;;;;;10.88;8.60;;;21.30;75.50;;;;;;5016226;28;20037;-84
2023/06/18 11:10:41;;;;;;;10.25;8.77;;;21.40;75.60;;;;;;5000537;28;20036;-85
2023/06/18 11:13:08;;;;;;;10.23;8.15;;;21.40;75.60;;;;;;4999191;28;20021;-84
2023/06/18 11:15:35;;;;;;;10.13;8.50;;;21.40;75.50;;;;;;4992377;28;20034;-82
2023/06/18 11:18:02;;;;;;;9.95;8.13;;;21.40;75.40;;;;;;5014851;28;20422;-83
2023/06/18 11:20:31;;;;;;;9.57;8.57;;;21.40;75.80;;;;;;4998826;28;20398;-84
2023/06/18 11:23:01;;;;;;;9.75;8.25;;;21.40;75.20;;;;;;5006159;28;20026;-86
2023/06/18 11:25:29;;;;;;;10.23;8.25;;;21.50;75.10;;;;;;5006275;28;20030;-85
2023/06/18 11:28:02;;;;;;;10.55;8.30;;;21.50;75.00;;;;;;5005403;28;20042;-85
2023/06/18 11:30:31;;;;;;;9.65;8.50;;;21.50;74.90;;;;;;5005192;28;20022;-85
2023/06/18 11:32:57;;;;;;;10.18;8.55;;;21.50;74.90;;;;;;5004727;28;20465;-85
2023/06/18 11:35:22;;;;;;;9.77;8.43;;;21.50;74.80;;;;;;5003482;28;20129;-85
2023/06/18 11:37:48;;;;;;;9.88;8.18;;;21.60;74.90;;;;;;5021203;28;20030;-84
2023/06/18 11:40:14;;;;;;;11.32;9.07;;;21.50;74.80;;;;;;5002426;28;20053;-84
2023/06/18 11:42:50;;;;;;;9.93;8.27;;;21.50;74.90;;;;;;5002437;28;20030;-85
2023/06/18 11:45:16;;;;;;;10.10;8.18;;;21.50;75.00;;;;;;5000443;28;20153;-85
2023/06/18 11:47:48;;;;;;;9.65;8.30;;;21.50;75.10;;;;;;5013441;28;20032;-85
2023/06/18 11:50:14;;;;;;;;;;;21.50;75.20;;;;;;5018626;28;20516;-84
2023/06/18 11:52:40;;;;;;;10.32;7.93;;;21.40;75.20;;;;;;5000207;28;19981;-85
2023/06/18 11:55:07;;;;;;;10.25;8.23;;;21.40;75.30;;;;;;4999237;28;20056;-83
2023/06/18 11:57:33;;;;;;;10.50;8.35;;;21.40;75.40;;;;;;4980599;28;20768;-84
2023/06/18 11:59:59;;;;;;;9.70;8.52;;;21.40;75.50;;;;;;4995902;28;20506;-83
2023/06/18 12:02:28;;;;;;;9.60;8.15;;;21.30;75.50;;;;;;4978839;28;20023;-83
2023/06/18 12:05:04;;;;;;;9.90;8.30;;;21.30;75.60;;;;;;4992429;28;20048;-84
2023/06/18 12:07:30;;;;;;;11.95;8.38;;;21.30;75.60;;;;;;4997018;28;20037;-83
2023/06/18 12:09:58;;;;;;;10.05;8.68;;;21.30;75.60;;;;;;5015657;28;20124;-84
2023/06/18 12:12:35;;;;;;;9.95;8.40;;;21.40;75.70;;;;;;4997308;28;20032;-84
2023/06/18 12:15:12;;;;;;;10.05;8.45;;;21.30;75.60;;;;;;5008933;28;20036;-85
2023/06/18 12:17:54;;;;;;;10.43;8.02;;;21.40;75.60;;;;;;4977451;28;20050;-85
2023/06/18 12:20:21;;;;;;;10.20;8.63;;;21.40;75.60;;;;;;4976731;28;20085;-82
2023/06/18 12:22:47;;;;;;;9.95;8.27;;;21.40;75.60;;;;;;4977157;28;20022;-84
2023/06/18 12:25:14;;;;;;;9.55;7.72;;;21.40;75.60;;;;;;5004626;28;20503;-84
2023/06/18 12:27:41;;;;;;;9.85;8.40;;;21.40;75.60;;;;;;4990249;28;20037;-84
2023/06/18 12:30:08;;;;;;;10.18;8.50;;;21.40;75.60;;;;;;4995617;28;20026;-84
2023/06/18 12:32:36;;;;;;;9.43;7.97;;;21.40;75.60;;;;;;4995130;28;20057;-84
2023/06/18 12:35:15;;;;;;;9.27;7.88;;;21.40;75.60;;;;;;5007592;28;20385;-83
2023/06/18 12:37:42;;;;;;;9.48;8.00;;;21.40;75.60;;;;;;5013318;28;20125;-83
2023/06/18 12:40:10;;;;;;;9.18;7.95;;;21.40;75.60;;;;;;4994622;28;20026;-84